createdAt,value
2023-01-06T00:09:25.566Z,101441.16
2023-01-06T00:19:27.000Z,101424.81
2023-01-06T00:29:28.547Z,101419.59
2023-01-06T00:39:29.962Z,101412.75
2023-01-06T00:49:31.360Z,101392.84
2023-01-06T00:59:33.301Z,101388.53
2023-01-06T01:09:34.791Z,101402.34
2023-01-06T01:19:37.081Z,101402.31
2023-01-06T01:29:38.670Z,101397.09
2023-01-06T01:39:40.100Z,101404.84
2023-01-06T01:49:45.905Z,101391.06
2023-01-06T01:59:47.544Z,101381.56
2023-01-06T02:10:07.857Z,101396.22
2023-01-06T02:20:49.724Z,101386.72
2023-01-06T02:31:18.610Z,101359.97
2023-01-06T02:41:30.953Z,101362.56
2023-01-06T02:51:46.624Z,101346.16
2023-01-06T03:01:52.863Z,101329.72
2023-01-06T03:11:54.330Z,101333.16
2023-01-06T03:21:56.441Z,101320.22
2023-01-06T03:32:13.130Z,101314.16
2023-01-06T03:42:46.498Z,101279.69
2023-01-06T03:52:59.665Z,101287.44
2023-01-06T04:03:01.741Z,101263.28
2023-01-06T04:13:03.126Z,101274.47
2023-01-06T04:23:04.557Z,101254.69
2023-01-06T04:33:05.889Z,101244.34
2023-01-06T04:43:07.357Z,101225.41
2023-01-06T04:53:11.078Z,101227.94
2023-01-06T05:03:12.452Z,101210.72
2023-01-06T05:13:13.862Z,101214.19
2023-01-06T05:23:16.027Z,101203.00
2023-01-06T05:33:17.405Z,101226.28
2023-01-06T05:43:19.463Z,101225.44
2023-01-06T05:53:20.845Z,101223.72
2023-01-06T06:03:22.326Z,101216.81
2023-01-06T06:13:24.553Z,101191.81
2023-01-06T06:23:26.016Z,101198.72
2023-01-06T06:33:27.372Z,101190.06
2023-01-06T06:43:29.192Z,101190.09
2023-01-06T06:53:30.814Z,101190.09
2023-01-06T07:03:32.358Z,101191.78
2023-01-06T07:13:33.693Z,101179.72
2023-01-06T07:23:35.183Z,101178.88
2023-01-06T07:33:36.562Z,101190.09
2023-01-06T07:43:37.960Z,101187.50
2023-01-06T07:53:39.333Z,101184.03
2023-01-06T08:03:40.795Z,101193.53
2023-01-06T08:13:42.300Z,101208.22
2023-01-06T08:23:43.719Z,101231.50
2023-01-06T08:33:46.084Z,101243.59
2023-01-06T08:43:48.394Z,101252.22
2023-01-06T08:53:50.947Z,101248.78
2023-01-06T09:03:52.519Z,101253.09
2023-01-06T09:13:54.410Z,101267.78
2023-01-06T09:23:55.785Z,101291.94
2023-01-06T09:33:57.162Z,101312.66
2023-01-06T09:44:09.981Z,101317.81
2023-01-06T09:54:17.319Z,101323.03
2023-01-06T10:04:30.070Z,101314.44
2023-01-06T10:14:47.935Z,101323.09
2023-01-06T10:25:09.534Z,101332.59
2023-01-06T10:35:13.556Z,101315.38
2023-01-06T10:45:15.164Z,101311.97
2023-01-06T10:55:32.110Z,101318.94
2023-01-06T11:05:34.784Z,101324.13
2023-01-06T11:15:41.375Z,101328.53
2023-01-06T11:25:42.793Z,101317.31
2023-01-06T11:35:44.305Z,101329.44
2023-01-06T11:45:57.851Z,101324.28
2023-01-06T11:56:04.835Z,101318.25
2023-01-06T12:06:30.588Z,101320.94
2023-01-06T12:16:39.092Z,101329.59
2023-01-06T12:26:42.728Z,101322.72
2023-01-06T12:37:01.362Z,101316.72
2023-01-06T12:47:24.865Z,101321.88
2023-01-06T12:57:41.405Z,101315.84
2023-01-06T13:07:52.622Z,101310.66
2023-01-06T13:18:21.560Z,101313.25
2023-01-06T13:28:41.745Z,101302.88
2023-01-06T13:38:57.305Z,101308.09
2023-01-06T13:49:02.860Z,101301.16
2023-01-06T13:59:22.657Z,101306.38
2023-01-06T14:09:24.527Z,101317.59
2023-01-06T14:19:43.483Z,101305.50
2023-01-06T14:29:46.187Z,101307.22
2023-01-06T14:39:49.872Z,101308.94
2023-01-06T14:50:14.263Z,101308.06
2023-01-06T15:00:20.361Z,101317.56
2023-01-06T15:10:22.177Z,101322.75
2023-01-06T15:20:43.598Z,101308.88
2023-01-06T15:30:49.601Z,101308.00
2023-01-06T15:40:52.420Z,101317.47
2023-01-06T15:50:53.776Z,101316.59
2023-01-06T16:01:01.164Z,101308.81
2023-01-06T16:11:38.016Z,101312.28
2023-01-06T16:21:40.241Z,101307.88
2023-01-06T16:31:41.980Z,101320.84
2023-01-06T16:41:58.572Z,101330.31
2023-01-06T16:51:59.946Z,101326.84
2023-01-06T17:02:13.059Z,101324.25
2023-01-06T17:12:37.975Z,101328.53
2023-01-06T17:22:39.482Z,101333.69
2023-01-06T17:32:43.470Z,101332.78
2023-01-06T17:42:50.374Z,101331.88
2023-01-06T17:53:11.783Z,101344.81
2023-01-06T18:03:23.667Z,101332.75
2023-01-06T18:13:31.985Z,101324.97
2023-01-06T18:23:34.681Z,101328.41
2023-01-06T18:33:36.210Z,101329.28
2023-01-06T18:43:39.758Z,101326.66
2023-01-06T18:53:43.206Z,101333.56
2023-01-06T19:04:05.951Z,101337.06
2023-01-06T19:14:15.567Z,101336.19
2023-01-06T19:24:29.133Z,101336.19
2023-01-06T19:34:31.264Z,101305.97
2023-01-06T19:44:35.323Z,101313.75
2023-01-06T19:54:38.706Z,101318.09
2023-01-06T20:04:41.028Z,101320.66
2023-01-06T20:14:42.405Z,101305.09
2023-01-06T20:24:43.843Z,101293.03
2023-01-06T20:34:45.196Z,101292.13
2023-01-06T20:44:46.862Z,101305.06
2023-01-06T20:54:48.281Z,101295.53
2023-01-06T21:04:49.675Z,101299.81
2023-01-06T21:14:51.117Z,101312.75
2023-01-06T21:24:52.653Z,101311.03
2023-01-06T21:34:54.100Z,101301.53
2023-01-06T21:44:55.615Z,101300.66
2023-01-06T21:54:59.174Z,101288.59
2023-01-06T22:05:01.846Z,101287.72
2023-01-06T22:15:04.323Z,101286.91
2023-01-06T22:25:06.494Z,101286.03
2023-01-06T22:35:08.338Z,101287.78
2023-01-06T22:45:11.113Z,101286.94
2023-01-06T22:55:12.476Z,101291.22
2023-01-06T23:05:13.906Z,101299.88
2023-01-06T23:15:15.374Z,101291.22
2023-01-06T23:25:16.861Z,101285.16
2023-01-06T23:35:18.233Z,101273.94
2023-01-06T23:45:19.663Z,101285.09
2023-01-06T23:55:20.998Z,101284.25
